sensor_id;sensor_type;location;lat;lon;timestamp;pressure;altitude;pressure_sealevel;temperature;humidity
22572;BME280;11452;53.368;14.658;2023-07-30T00:00:50;100144.19;;;19.49;92.29
22572;BME280;11452;53.368;14.658;2023-07-30T00:05:57;100139.92;;;19.43;92.33
22572;BME280;11452;53.368;14.658;2023-07-30T00:11:03;100139.73;;;19.40;92.29
22572;BME280;11452;53.368;14.658;2023-07-30T00:16:09;100142.95;;;19.40;92.07
22572;BME280;11452;53.368;14.658;2023-07-30T00:21:15;100147.98;;;19.34;92.17
22572;BME280;11452;53.368;14.658;2023-07-30T00:26:20;100150.49;;;19.32;92.29
22572;BME280;11452;53.368;14.658;2023-07-30T00:31:28;100153.05;;;19.33;92.23
22572;BME280;11452;53.368;14.658;2023-07-30T00:36:34;100163.88;;;19.29;92.17
22572;BME280;11452;53.368;14.658;2023-07-30T00:41:41;100165.54;;;19.26;92.21
22572;BME280;11452;53.368;14.658;2023-07-30T00:46:47;100162.79;;;19.22;91.99
22572;BME280;11452;53.368;14.658;2023-07-30T00:51:55;100168.16;;;19.18;91.97
22572;BME280;11452;53.368;14.658;2023-07-30T00:57:04;100164.95;;;19.19;91.99
22572;BME280;11452;53.368;14.658;2023-07-30T01:02:12;100155.92;;;19.10;91.95
22572;BME280;11452;53.368;14.658;2023-07-30T01:07:18;100164.20;;;19.09;92.09
22572;BME280;11452;53.368;14.658;2023-07-30T01:12:24;100161.24;;;19.02;92.04
22572;BME280;11452;53.368;14.658;2023-07-30T01:17:30;100169.17;;;18.99;92.35
22572;BME280;11452;53.368;14.658;2023-07-30T01:22:36;100177.39;;;18.90;92.25
22572;BME280;11452;53.368;14.658;2023-07-30T01:27:46;100185.01;;;18.90;92.60
22572;BME280;11452;53.368;14.658;2023-07-30T01:32:52;100188.72;;;18.89;92.61
22572;BME280;11452;53.368;14.658;2023-07-30T01:37:59;100202.31;;;18.80;92.58
22572;BME280;11452;53.368;14.658;2023-07-30T01:43:07;100192.48;;;18.79;92.80
22572;BME280;11452;53.368;14.658;2023-07-30T01:48:13;100193.28;;;18.75;92.87
22572;BME280;11452;53.368;14.658;2023-07-30T01:53:21;100210.66;;;18.68;93.00
22572;BME280;11452;53.368;14.658;2023-07-30T01:58:26;100209.16;;;18.70;93.16
22572;BME280;11452;53.368;14.658;2023-07-30T02:03:32;100212.36;;;18.70;92.92
22572;BME280;11452;53.368;14.658;2023-07-30T02:08:38;100202.83;;;18.65;92.82
22572;BME280;11452;53.368;14.658;2023-07-30T02:13:45;100212.52;;;18.58;92.83
22572;BME280;11452;53.368;14.658;2023-07-30T02:18:51;100216.72;;;18.57;92.95
22572;BME280;11452;53.368;14.658;2023-07-30T02:23:56;100213.14;;;18.52;92.88
22572;BME280;11452;53.368;14.658;2023-07-30T02:29:02;100214.22;;;18.46;92.53
22572;BME280;11452;53.368;14.658;2023-07-30T02:34:08;100213.11;;;18.39;92.36
22572;BME280;11452;53.368;14.658;2023-07-30T02:39:14;100214.38;;;18.30;92.37
22572;BME280;11452;53.368;14.658;2023-07-30T02:44:19;100209.25;;;18.27;92.41
22572;BME280;11452;53.368;14.658;2023-07-30T02:49:25;100204.42;;;18.21;92.39
22572;BME280;11452;53.368;14.658;2023-07-30T02:54:32;100210.03;;;18.10;92.57
22572;BME280;11452;53.368;14.658;2023-07-30T02:59:38;100208.47;;;18.08;92.38
22572;BME280;11452;53.368;14.658;2023-07-30T03:04:45;100207.55;;;18.03;92.29
22572;BME280;11452;53.368;14.658;2023-07-30T03:09:51;100216.20;;;17.93;92.09
22572;BME280;11452;53.368;14.658;2023-07-30T03:14:57;100211.80;;;17.92;92.36
22572;BME280;11452;53.368;14.658;2023-07-30T03:20:03;100214.36;;;17.84;92.48
22572;BME280;11452;53.368;14.658;2023-07-30T03:25:08;100222.47;;;17.84;92.74
22572;BME280;11452;53.368;14.658;2023-07-30T03:30:14;100233.61;;;17.81;92.68
22572;BME280;11452;53.368;14.658;2023-07-30T03:35:20;100241.05;;;17.83;92.95
22572;BME280;11452;53.368;14.658;2023-07-30T03:40:26;100239.05;;;17.85;93.04
22572;BME280;11452;53.368;14.658;2023-07-30T03:45:32;100246.66;;;17.85;92.83
22572;BME280;11452;53.368;14.658;2023-07-30T03:50:38;100247.59;;;17.90;92.83
22572;BME280;11452;53.368;14.658;2023-07-30T03:55:44;100255.70;;;17.90;92.97
22572;BME280;11452;53.368;14.658;2023-07-30T04:00:49;100241.25;;;17.95;93.16
22572;BME280;11452;53.368;14.658;2023-07-30T04:05:55;100247.05;;;18.00;92.92
22572;BME280;11452;53.368;14.658;2023-07-30T04:11:02;100251.89;;;18.06;92.99
22572;BME280;11452;53.368;14.658;2023-07-30T04:16:09;100255.02;;;18.11;93.18
22572;BME280;11452;53.368;14.658;2023-07-30T04:21:15;100255.62;;;18.19;92.92
22572;BME280;11452;53.368;14.658;2023-07-30T04:26:21;100262.38;;;18.19;92.63
22572;BME280;11452;53.368;14.658;2023-07-30T04:31:26;100262.66;;;18.25;92.64
22572;BME280;11452;53.368;14.658;2023-07-30T04:36:32;100271.00;;;18.42;93.37
22572;BME280;11452;53.368;14.658;2023-07-30T04:41:38;100267.91;;;18.50;92.99
22572;BME280;11452;53.368;14.658;2023-07-30T04:46:44;100274.66;;;18.60;92.43
22572;BME280;11452;53.368;14.658;2023-07-30T04:51:50;100281.13;;;18.77;92.61
22572;BME280;11452;53.368;14.658;2023-07-30T04:56:56;100285.02;;;18.88;91.92
22572;BME280;11452;53.368;14.658;2023-07-30T05:02:02;100289.72;;;18.99;91.29
22572;BME280;11452;53.368;14.658;2023-07-30T05:07:08;100294.52;;;19.19;90.56
22572;BME280;11452;53.368;14.658;2023-07-30T05:12:13;100295.69;;;19.34;90.50
22572;BME280;11452;53.368;14.658;2023-07-30T05:17:21;100302.41;;;19.44;89.42
22572;BME280;11452;53.368;14.658;2023-07-30T05:22:27;100299.23;;;19.62;89.08
22572;BME280;11452;53.368;14.658;2023-07-30T05:27:32;100298.91;;;19.83;88.23
22572;BME280;11452;53.368;14.658;2023-07-30T05:32:38;100294.61;;;19.77;86.09
22572;BME280;11452;53.368;14.658;2023-07-30T05:37:44;100294.89;;;19.91;85.92
22572;BME280;11452;53.368;14.658;2023-07-30T05:42:50;100305.56;;;20.11;85.45
22572;BME280;11452;53.368;14.658;2023-07-30T05:47:56;100312.27;;;20.24;84.27
22572;BME280;11452;53.368;14.658;2023-07-30T05:53:03;100313.69;;;20.32;83.87
22572;BME280;11452;53.368;14.658;2023-07-30T05:58:10;100325.02;;;20.28;82.86
22572;BME280;11452;53.368;14.658;2023-07-30T06:03:17;100318.89;;;20.22;82.69
22572;BME280;11452;53.368;14.658;2023-07-30T06:08:23;100319.74;;;20.22;82.10
22572;BME280;11452;53.368;14.658;2023-07-30T06:13:29;100316.34;;;20.24;82.36
22572;BME280;11452;53.368;14.658;2023-07-30T06:18:37;100314.35;;;20.30;82.17
22572;BME280;11452;53.368;14.658;2023-07-30T06:23:44;100320.48;;;20.32;81.83
22572;BME280;11452;53.368;14.658;2023-07-30T06:28:51;100315.59;;;20.36;81.95
22572;BME280;11452;53.368;14.658;2023-07-30T06:33:56;100308.20;;;20.46;82.02
22572;BME280;11452;53.368;14.658;2023-07-30T06:39:02;100307.95;;;20.61;82.02
22572;BME280;11452;53.368;14.658;2023-07-30T06:44:08;100307.63;;;20.64;81.05
22572;BME280;11452;53.368;14.658;2023-07-30T06:49:16;100314.45;;;20.68;80.86
22572;BME280;11452;53.368;14.658;2023-07-30T06:54:22;100307.21;;;20.77;80.60
22572;BME280;11452;53.368;14.658;2023-07-30T06:59:28;100303.63;;;20.81;80.01
22572;BME280;11452;53.368;14.658;2023-07-30T07:04:33;100301.86;;;21.01;79.62
22572;BME280;11452;53.368;14.658;2023-07-30T07:09:39;100304.41;;;21.03;78.99
22572;BME280;11452;53.368;14.658;2023-07-30T07:14:46;100305.45;;;21.06;77.55
22572;BME280;11452;53.368;14.658;2023-07-30T07:19:51;100312.85;;;21.26;77.73
22572;BME280;11452;53.368;14.658;2023-07-30T07:24:57;100310.67;;;21.41;77.38
22572;BME280;11452;53.368;14.658;2023-07-30T07:30:04;100312.94;;;21.66;76.97
22572;BME280;11452;53.368;14.658;2023-07-30T07:35:10;100312.25;;;21.72;76.18
22572;BME280;11452;53.368;14.658;2023-07-30T07:40:22;100316.17;;;21.78;75.32
22572;BME280;11452;53.368;14.658;2023-07-30T07:45:28;100308.86;;;21.95;74.99
22572;BME280;11452;53.368;14.658;2023-07-30T07:50:38;100315.53;;;22.00;73.89
22572;BME280;11452;53.368;14.658;2023-07-30T07:55:50;100296.83;;;22.01;72.87
22572;BME280;11452;53.368;14.658;2023-07-30T08:00:56;100310.59;;;22.12;71.77
22572;BME280;11452;53.368;14.658;2023-07-30T08:06:02;100308.37;;;22.20;71.01
22572;BME280;11452;53.368;14.658;2023-07-30T08:11:08;100304.78;;;22.39;71.16
22572;BME280;11452;53.368;14.658;2023-07-30T08:16:14;100304.40;;;22.46;69.82
22572;BME280;11452;53.368;14.658;2023-07-30T08:21:20;100300.81;;;22.58;69.40
22572;BME280;11452;53.368;14.658;2023-07-30T08:26:25;100299.59;;;22.77;69.52
22572;BME280;11452;53.368;14.658;2023-07-30T08:31:31;100297.42;;;23.03;69.04
22572;BME280;11452;53.368;14.658;2023-07-30T08:36:37;100299.33;;;23.34;68.44
22572;BME280;11452;53.368;14.658;2023-07-30T08:41:44;100300.78;;;23.44;68.24
22572;BME280;11452;53.368;14.658;2023-07-30T08:46:50;100305.61;;;23.69;68.03
22572;BME280;11452;53.368;14.658;2023-07-30T08:51:58;100304.23;;;23.92;68.01
22572;BME280;11452;53.368;14.658;2023-07-30T08:57:05;100305.67;;;24.22;67.12
22572;BME280;11452;53.368;14.658;2023-07-30T09:02:20;100306.32;;;24.46;66.36
22572;BME280;11452;53.368;14.658;2023-07-30T09:07:20;100299.48;;;24.61;66.18
22572;BME280;11452;53.368;14.658;2023-07-30T09:12:33;100296.23;;;24.76;65.07
22572;BME280;11452;53.368;14.658;2023-07-30T09:17:39;100294.81;;;25.10;64.70
22572;BME280;11452;53.368;14.658;2023-07-30T09:22:58;100298.25;;;24.93;63.04
22572;BME280;11452;53.368;14.658;2023-07-30T09:28:06;100296.38;;;24.79;62.71
22572;BME280;11452;53.368;14.658;2023-07-30T09:33:17;100302.22;;;24.76;62.37
22572;BME280;11452;53.368;14.658;2023-07-30T09:38:24;100303.02;;;24.80;62.37
22572;BME280;11452;53.368;14.658;2023-07-30T09:43:33;100287.89;;;24.59;61.83
22572;BME280;11452;53.368;14.658;2023-07-30T09:48:40;100286.34;;;24.46;60.86
22572;BME280;11452;53.368;14.658;2023-07-30T09:53:46;100290.19;;;24.51;61.69
22572;BME280;11452;53.368;14.658;2023-07-30T09:58:52;100280.45;;;24.82;62.26
22572;BME280;11452;53.368;14.658;2023-07-30T10:04:02;100294.86;;;25.06;61.38
22572;BME280;11452;53.368;14.658;2023-07-30T10:09:11;100293.99;;;24.95;60.04
22572;BME280;11452;53.368;14.658;2023-07-30T10:14:21;100288.97;;;24.54;59.80
22572;BME280;11452;53.368;14.658;2023-07-30T10:19:30;100297.74;;;24.31;60.05
22572;BME280;11452;53.368;14.658;2023-07-30T10:24:39;100299.27;;;24.67;61.92
22572;BME280;11452;53.368;14.658;2023-07-30T10:35:38;100294.44;;;25.13;61.18
22572;BME280;11452;53.368;14.658;2023-07-30T10:46:13;100280.83;;;24.94;57.62
22572;BME280;11452;53.368;14.658;2023-07-30T10:51:20;100289.11;;;25.15;57.21
22572;BME280;11452;53.368;14.658;2023-07-30T10:56:28;100282.13;;;25.24;56.68
22572;BME280;11452;53.368;14.658;2023-07-30T11:01:43;100291.37;;;25.48;56.46
22572;BME280;11452;53.368;14.658;2023-07-30T11:06:51;100288.35;;;25.68;55.87
22572;BME280;11452;53.368;14.658;2023-07-30T11:11:57;100281.23;;;25.84;54.85
22572;BME280;11452;53.368;14.658;2023-07-30T11:17:03;100269.09;;;25.51;52.96
22572;BME280;11452;53.368;14.658;2023-07-30T11:22:08;100284.47;;;25.52;51.79
22572;BME280;11452;53.368;14.658;2023-07-30T11:27:14;100278.20;;;25.47;51.06
22572;BME280;11452;53.368;14.658;2023-07-30T11:32:20;100285.38;;;25.12;51.55
22572;BME280;11452;53.368;14.658;2023-07-30T11:37:27;100285.61;;;25.22;52.10
22572;BME280;11452;53.368;14.658;2023-07-30T11:42:34;100285.61;;;25.07;50.56
22572;BME280;11452;53.368;14.658;2023-07-30T11:47:41;100289.53;;;25.34;51.36
22572;BME280;11452;53.368;14.658;2023-07-30T11:52:56;100293.61;;;25.59;50.76
22572;BME280;11452;53.368;14.658;2023-07-30T11:58:02;100295.41;;;25.77;50.52
22572;BME280;11452;53.368;14.658;2023-07-30T12:03:10;100290.78;;;25.78;49.67
22572;BME280;11452;53.368;14.658;2023-07-30T12:08:17;100291.34;;;25.63;48.91
22572;BME280;11452;53.368;14.658;2023-07-30T12:13:26;100290.45;;;25.77;49.28
22572;BME280;11452;53.368;14.658;2023-07-30T12:18:32;100291.00;;;26.04;48.81
22572;BME280;11452;53.368;14.658;2023-07-30T12:23:38;100274.89;;;26.16;48.03
22572;BME280;11452;53.368;14.658;2023-07-30T12:28:44;100277.73;;;26.18;46.90
22572;BME280;11452;53.368;14.658;2023-07-30T12:33:49;100281.67;;;25.99;46.69
22572;BME280;11452;53.368;14.658;2023-07-30T12:38:55;100269.15;;;26.11;46.33
22572;BME280;11452;53.368;14.658;2023-07-30T12:44:01;100279.23;;;26.21;46.33
22572;BME280;11452;53.368;14.658;2023-07-30T12:49:08;100277.88;;;26.32;45.39
22572;BME280;11452;53.368;14.658;2023-07-30T12:54:14;100273.91;;;26.13;44.64
22572;BME280;11452;53.368;14.658;2023-07-30T12:59:20;100281.75;;;25.84;44.18
22572;BME280;11452;53.368;14.658;2023-07-30T13:04:25;100271.86;;;25.94;44.71
22572;BME280;11452;53.368;14.658;2023-07-30T13:09:32;100267.22;;;26.22;44.69
22572;BME280;11452;53.368;14.658;2023-07-30T13:14:37;100263.70;;;26.28;44.06
22572;BME280;11452;53.368;14.658;2023-07-30T13:19:43;100266.28;;;26.47;43.54
22572;BME280;11452;53.368;14.658;2023-07-30T13:24:49;100264.31;;;26.51;43.38
22572;BME280;11452;53.368;14.658;2023-07-30T13:29:55;100269.68;;;26.73;42.71
22572;BME280;11452;53.368;14.658;2023-07-30T13:35:00;100260.40;;;26.50;42.22
22572;BME280;11452;53.368;14.658;2023-07-30T13:40:07;100266.73;;;26.50;42.64
22572;BME280;11452;53.368;14.658;2023-07-30T13:45:13;100253.53;;;26.67;42.68
22572;BME280;11452;53.368;14.658;2023-07-30T13:50:19;100254.98;;;26.63;41.61
22572;BME280;11452;53.368;14.658;2023-07-30T13:55:25;100265.35;;;26.68;41.45
22572;BME280;11452;53.368;14.658;2023-07-30T14:00:30;100265.05;;;26.39;40.64
22572;BME280;11452;53.368;14.658;2023-07-30T14:05:36;100265.58;;;26.38;41.01
22572;BME280;11452;53.368;14.658;2023-07-30T14:10:42;100263.94;;;26.05;40.22
22572;BME280;11452;53.368;14.658;2023-07-30T14:15:47;100265.62;;;26.06;41.10
22572;BME280;11452;53.368;14.658;2023-07-30T14:20:54;100273.81;;;26.17;41.30
22572;BME280;11452;53.368;14.658;2023-07-30T14:26:00;100266.42;;;26.39;41.14
22572;BME280;11452;53.368;14.658;2023-07-30T14:31:06;100263.27;;;26.52;41.10
22572;BME280;11452;53.368;14.658;2023-07-30T14:36:13;100255.19;;;26.62;40.76
22572;BME280;11452;53.368;14.658;2023-07-30T14:41:19;100256.63;;;26.58;40.04
22572;BME280;11452;53.368;14.658;2023-07-30T14:46:24;100246.23;;;26.29;40.30
22572;BME280;11452;53.368;14.658;2023-07-30T14:51:30;100258.18;;;26.49;40.55
22572;BME280;11452;53.368;14.658;2023-07-30T14:56:36;100260.43;;;26.29;39.71
22572;BME280;11452;53.368;14.658;2023-07-30T15:01:43;100271.66;;;26.23;40.57
22572;BME280;11452;53.368;14.658;2023-07-30T15:06:49;100258.41;;;26.27;40.50
22572;BME280;11452;53.368;14.658;2023-07-30T15:11:54;100253.22;;;26.32;40.72
22572;BME280;11452;53.368;14.658;2023-07-30T15:17:00;100261.64;;;26.47;41.20
22572;BME280;11452;53.368;14.658;2023-07-30T15:22:06;100249.25;;;26.13;41.08
22572;BME280;11452;53.368;14.658;2023-07-30T15:27:12;100247.82;;;26.06;41.53
22572;BME280;11452;53.368;14.658;2023-07-30T15:32:18;100252.71;;;26.11;41.59
22572;BME280;11452;53.368;14.658;2023-07-30T15:37:25;100246.16;;;25.95;41.46
22572;BME280;11452;53.368;14.658;2023-07-30T15:42:31;100266.89;;;25.82;41.94
22572;BME280;11452;53.368;14.658;2023-07-30T15:47:37;100262.91;;;25.85;42.19
22572;BME280;11452;53.368;14.658;2023-07-30T15:52:43;100257.45;;;25.74;42.40
22572;BME280;11452;53.368;14.658;2023-07-30T15:57:50;100261.44;;;25.72;43.07
22572;BME280;11452;53.368;14.658;2023-07-30T16:02:58;100250.03;;;25.79;43.28
22572;BME280;11452;53.368;14.658;2023-07-30T16:08:07;100250.42;;;25.76;43.25
22572;BME280;11452;53.368;14.658;2023-07-30T16:13:13;100252.16;;;27.39;45.28
22572;BME280;11452;53.368;14.658;2023-07-30T16:18:19;100246.55;;;27.80;40.99
22572;BME280;11452;53.368;14.658;2023-07-30T16:23:25;100250.22;;;27.70;40.42
22572;BME280;11452;53.368;14.658;2023-07-30T16:28:32;100250.95;;;27.68;40.00
22572;BME280;11452;53.368;14.658;2023-07-30T16:33:40;100241.88;;;27.61;40.41
22572;BME280;11452;53.368;14.658;2023-07-30T16:38:45;100242.31;;;27.34;39.52
22572;BME280;11452;53.368;14.658;2023-07-30T16:43:51;100238.14;;;27.14;39.60
22572;BME280;11452;53.368;14.658;2023-07-30T16:48:59;100229.30;;;26.95;39.66
22572;BME280;11452;53.368;14.658;2023-07-30T16:54:04;100230.20;;;26.91;40.45
22572;BME280;11452;53.368;14.658;2023-07-30T16:59:10;100234.92;;;27.98;39.30
22572;BME280;11452;53.368;14.658;2023-07-30T17:04:16;100235.12;;;27.63;39.57
22572;BME280;11452;53.368;14.658;2023-07-30T17:09:24;100242.05;;;27.15;39.60
22572;BME280;11452;53.368;14.658;2023-07-30T17:14:30;100236.30;;;27.28;40.16
22572;BME280;11452;53.368;14.658;2023-07-30T17:19:36;100241.23;;;27.21;40.16
22572;BME280;11452;53.368;14.658;2023-07-30T17:24:42;100242.86;;;26.85;40.04
22572;BME280;11452;53.368;14.658;2023-07-30T17:29:48;100240.91;;;26.55;40.22
22572;BME280;11452;53.368;14.658;2023-07-30T17:34:56;100252.48;;;26.23;40.69
22572;BME280;11452;53.368;14.658;2023-07-30T17:40:03;100251.31;;;25.94;40.85
22572;BME280;11452;53.368;14.658;2023-07-30T17:45:10;100246.49;;;25.64;42.01
22572;BME280;11452;53.368;14.658;2023-07-30T17:50:16;100250.91;;;25.86;43.03
22572;BME280;11452;53.368;14.658;2023-07-30T17:55:21;100259.30;;;26.06;42.45
22572;BME280;11452;53.368;14.658;2023-07-30T18:00:27;100264.15;;;25.82;42.67
22572;BME280;11452;53.368;14.658;2023-07-30T18:05:34;100270.61;;;25.64;42.71
22572;BME280;11452;53.368;14.658;2023-07-30T18:10:43;100268.16;;;25.33;42.35
22572;BME280;11452;53.368;14.658;2023-07-30T18:15:51;100269.24;;;25.17;42.66
22572;BME280;11452;53.368;14.658;2023-07-30T18:20:57;100276.74;;;24.90;42.55
22572;BME280;11452;53.368;14.658;2023-07-30T18:26:03;100281.16;;;24.80;42.66
22572;BME280;11452;53.368;14.658;2023-07-30T18:31:08;100285.49;;;24.45;43.00
22572;BME280;11452;53.368;14.658;2023-07-30T18:36:14;100300.20;;;24.26;43.14
22572;BME280;11452;53.368;14.658;2023-07-30T18:41:20;100308.58;;;24.01;43.72
22572;BME280;11452;53.368;14.658;2023-07-30T18:46:26;100313.33;;;23.85;44.08
22572;BME280;11452;53.368;14.658;2023-07-30T18:51:31;100319.47;;;23.60;44.68
22572;BME280;11452;53.368;14.658;2023-07-30T18:56:37;100317.06;;;23.34;45.46
22572;BME280;11452;53.368;14.658;2023-07-30T19:01:44;100337.95;;;23.14;46.12
22572;BME280;11452;53.368;14.658;2023-07-30T19:06:50;100344.84;;;22.94;46.91
22572;BME280;11452;53.368;14.658;2023-07-30T19:11:56;100347.97;;;22.79;47.54
22572;BME280;11452;53.368;14.658;2023-07-30T19:17:04;100359.91;;;22.62;48.08
22572;BME280;11452;53.368;14.658;2023-07-30T19:22:16;100371.48;;;22.56;48.51
22572;BME280;11452;53.368;14.658;2023-07-30T19:27:22;100370.14;;;22.39;48.95
22572;BME280;11452;53.368;14.658;2023-07-30T19:32:30;100381.23;;;22.26;49.46
22572;BME280;11452;53.368;14.658;2023-07-30T19:37:37;100384.45;;;22.17;50.00
22572;BME280;11452;53.368;14.658;2023-07-30T19:42:43;100408.77;;;22.02;50.51
22572;BME280;11452;53.368;14.658;2023-07-30T19:47:49;100430.66;;;21.85;51.62
22572;BME280;11452;53.368;14.658;2023-07-30T19:52:55;100434.02;;;21.70;51.91
22572;BME280;11452;53.368;14.658;2023-07-30T19:58:01;100450.20;;;21.38;52.90
22572;BME280;11452;53.368;14.658;2023-07-30T20:03:08;100443.98;;;21.20;53.51
22572;BME280;11452;53.368;14.658;2023-07-30T20:08:14;100444.27;;;21.17;53.81
22572;BME280;11452;53.368;14.658;2023-07-30T20:13:21;100450.51;;;21.05;54.39
22572;BME280;11452;53.368;14.658;2023-07-30T20:18:27;100461.44;;;20.87;55.18
22572;BME280;11452;53.368;14.658;2023-07-30T20:23:35;100454.95;;;20.84;55.69
22572;BME280;11452;53.368;14.658;2023-07-30T20:28:42;100445.80;;;20.63;56.45
22572;BME280;11452;53.368;14.658;2023-07-30T20:33:49;100445.64;;;20.43;57.33
22572;BME280;11452;53.368;14.658;2023-07-30T20:38:55;100461.14;;;20.33;57.97
22572;BME280;11452;53.368;14.658;2023-07-30T20:44:00;100470.64;;;20.33;58.16
22572;BME280;11452;53.368;14.658;2023-07-30T20:49:06;100474.86;;;20.14;58.87
22572;BME280;11452;53.368;14.658;2023-07-30T20:54:12;100477.33;;;20.07;59.33
22572;BME280;11452;53.368;14.658;2023-07-30T20:59:19;100483.77;;;20.06;59.83
22572;BME280;11452;53.368;14.658;2023-07-30T21:04:25;100475.41;;;19.99;60.02
22572;BME280;11452;53.368;14.658;2023-07-30T21:09:31;100482.64;;;19.95;60.41
22572;BME280;11452;53.368;14.658;2023-07-30T21:14:36;100479.12;;;19.98;60.54
22572;BME280;11452;53.368;14.658;2023-07-30T21:19:42;100465.61;;;19.89;60.62
22572;BME280;11452;53.368;14.658;2023-07-30T21:24:51;100466.59;;;19.84;60.84
22572;BME280;11452;53.368;14.658;2023-07-30T21:29:56;100461.21;;;19.74;61.04
22572;BME280;11452;53.368;14.658;2023-07-30T21:35:02;100466.28;;;19.73;60.97
22572;BME280;11452;53.368;14.658;2023-07-30T21:40:09;100474.08;;;19.58;60.63
22572;BME280;11452;53.368;14.658;2023-07-30T21:45:15;100475.67;;;19.51;60.81
22572;BME280;11452;53.368;14.658;2023-07-30T21:50:21;100478.64;;;19.34;60.62
22572;BME280;11452;53.368;14.658;2023-07-30T21:55:27;100483.47;;;19.27;60.90
22572;BME280;11452;53.368;14.658;2023-07-30T22:00:33;100480.71;;;19.13;60.77
22572;BME280;11452;53.368;14.658;2023-07-30T22:05:38;100479.55;;;19.02;60.72
22572;BME280;11452;53.368;14.658;2023-07-30T22:10:45;100469.04;;;18.89;60.43
22572;BME280;11452;53.368;14.658;2023-07-30T22:15:51;100475.31;;;18.80;60.75
22572;BME280;11452;53.368;14.658;2023-07-30T22:20:57;100473.18;;;18.74;60.62
22572;BME280;11452;53.368;14.658;2023-07-30T22:26:03;100473.06;;;18.66;60.57
22572;BME280;11452;53.368;14.658;2023-07-30T22:31:10;100463.02;;;18.62;60.73
22572;BME280;11452;53.368;14.658;2023-07-30T22:36:16;100450.70;;;18.64;60.68
22572;BME280;11452;53.368;14.658;2023-07-30T22:41:22;100452.97;;;18.59;60.47
22572;BME280;11452;53.368;14.658;2023-07-30T22:46:29;100459.50;;;18.56;60.58
22572;BME280;11452;53.368;14.658;2023-07-30T22:51:35;100441.72;;;18.54;60.68
22572;BME280;11452;53.368;14.658;2023-07-30T22:56:41;100450.69;;;18.54;60.55
22572;BME280;11452;53.368;14.658;2023-07-30T23:01:47;100462.37;;;18.45;60.53
22572;BME280;11452;53.368;14.658;2023-07-30T23:06:53;100443.87;;;18.31;60.92
22572;BME280;11452;53.368;14.658;2023-07-30T23:11:59;100447.78;;;18.32;61.11
22572;BME280;11452;53.368;14.658;2023-07-30T23:17:05;100446.14;;;18.26;61.45
22572;BME280;11452;53.368;14.658;2023-07-30T23:22:11;100454.12;;;18.27;61.78
22572;BME280;11452;53.368;14.658;2023-07-30T23:27:17;100460.40;;;18.18;61.98
22572;BME280;11452;53.368;14.658;2023-07-30T23:32:23;100461.81;;;18.13;62.38
22572;BME280;11452;53.368;14.658;2023-07-30T23:37:29;100462.23;;;18.08;62.66
22572;BME280;11452;53.368;14.658;2023-07-30T23:42:34;100455.38;;;18.04;63.16
22572;BME280;11452;53.368;14.658;2023-07-30T23:47:40;100450.11;;;18.03;63.54
22572;BME280;11452;53.368;14.658;2023-07-30T23:52:46;100445.00;;;18.09;63.71
22572;BME280;11452;53.368;14.658;2023-07-30T23:57:52;100448.84;;;18.07;64.13
